sensor_id;sensor_type;location;lat;lon;timestamp;temperature;humidity
37702;DHT22;23548;51.196;6.838;2023-03-01T00:01:50;0.40;99.90
37702;DHT22;23548;51.196;6.838;2023-03-01T00:04:16;0.40;99.90
37702;DHT22;23548;51.196;6.838;2023-03-01T00:06:43;0.40;99.90
37702;DHT22;23548;51.196;6.838;2023-03-01T00:09:12;0.30;99.90
37702;DHT22;23548;51.196;6.838;2023-03-01T00:11:38;0.30;99.90
37702;DHT22;23548;51.196;6.838;2023-03-01T00:14:04;0.30;99.90
37702;DHT22;23548;51.196;6.838;2023-03-01T00:16:42;0.40;99.90
37702;DHT22;23548;51.196;6.838;2023-03-01T00:19:19;0.40;99.90
37702;DHT22;23548;51.196;6.838;2023-03-01T00:21:46;0.40;99.90
37702;DHT22;23548;51.196;6.838;2023-03-01T00:24:13;0.40;99.90
37702;DHT22;23548;51.196;6.838;2023-03-01T00:26:39;0.30;99.90
37702;DHT22;23548;51.196;6.838;2023-03-01T00:29:05;0.30;99.90
37702;DHT22;23548;51.196;6.838;2023-03-01T00:31:33;0.20;99.90
37702;DHT22;23548;51.196;6.838;2023-03-01T00:34:01;0.10;99.90
37702;DHT22;23548;51.196;6.838;2023-03-01T00:36:31;0.10;99.90
37702;DHT22;23548;51.196;6.838;2023-03-01T00:38:57;0.00;99.90
37702;DHT22;23548;51.196;6.838;2023-03-01T00:41:24;0.10;99.90
37702;DHT22;23548;51.196;6.838;2023-03-01T00:43:52;0.10;99.90
37702;DHT22;23548;51.196;6.838;2023-03-01T00:46:26;0.10;99.90
37702;DHT22;23548;51.196;6.838;2023-03-01T00:48:52;0.00;99.90
37702;DHT22;23548;51.196;6.838;2023-03-01T00:51:22;-0.10;99.90
37702;DHT22;23548;51.196;6.838;2023-03-01T00:53:51;-0.20;99.90
37702;DHT22;23548;51.196;6.838;2023-03-01T00:56:19;-0.20;99.90
37702;DHT22;23548;51.196;6.838;2023-03-01T00:58:45;-0.30;99.90
37702;DHT22;23548;51.196;6.838;2023-03-01T01:01:22;-0.50;99.90
37702;DHT22;23548;51.196;6.838;2023-03-01T01:03:51;-0.50;99.90
37702;DHT22;23548;51.196;6.838;2023-03-01T01:06:20;-0.60;99.90
37702;DHT22;23548;51.196;6.838;2023-03-01T01:08:48;-0.60;99.90
37702;DHT22;23548;51.196;6.838;2023-03-01T01:11:15;-0.60;99.90
37702;DHT22;23548;51.196;6.838;2023-03-01T01:13:41;-0.60;99.90
37702;DHT22;23548;51.196;6.838;2023-03-01T01:16:08;-0.60;99.90
37702;DHT22;23548;51.196;6.838;2023-03-01T01:18:34;-0.60;99.90
37702;DHT22;23548;51.196;6.838;2023-03-01T01:21:08;-0.50;99.90
37702;DHT22;23548;51.196;6.838;2023-03-01T01:23:35;-0.60;99.90
37702;DHT22;23548;51.196;6.838;2023-03-01T01:26:06;-0.70;99.90
37702;DHT22;23548;51.196;6.838;2023-03-01T01:28:32;-0.80;99.90
37702;DHT22;23548;51.196;6.838;2023-03-01T01:30:59;-0.80;99.90
37702;DHT22;23548;51.196;6.838;2023-03-01T01:33:25;-0.80;99.90
37702;DHT22;23548;51.196;6.838;2023-03-01T01:35:51;-0.80;99.90
37702;DHT22;23548;51.196;6.838;2023-03-01T01:38:16;-0.70;99.90
37702;DHT22;23548;51.196;6.838;2023-03-01T01:40:44;-0.80;99.90
37702;DHT22;23548;51.196;6.838;2023-03-01T01:43:27;-0.90;99.90
37702;DHT22;23548;51.196;6.838;2023-03-01T01:46:06;-0.90;99.90
37702;DHT22;23548;51.196;6.838;2023-03-01T01:48:50;-0.90;99.90
37702;DHT22;23548;51.196;6.838;2023-03-01T01:51:25;-0.90;99.90
37702;DHT22;23548;51.196;6.838;2023-03-01T01:53:58;-0.80;99.90
37702;DHT22;23548;51.196;6.838;2023-03-01T01:56:25;-0.80;99.90
37702;DHT22;23548;51.196;6.838;2023-03-01T01:58:53;-0.80;99.90
37702;DHT22;23548;51.196;6.838;2023-03-01T02:01:19;-1.00;99.90
37702;DHT22;23548;51.196;6.838;2023-03-01T02:03:46;-1.00;99.90
37702;DHT22;23548;51.196;6.838;2023-03-01T02:09:11;-1.00;99.90
37702;DHT22;23548;51.196;6.838;2023-03-01T02:11:38;-1.10;99.90
37702;DHT22;23548;51.196;6.838;2023-03-01T02:14:05;-1.20;99.90
37702;DHT22;23548;51.196;6.838;2023-03-01T02:16:31;-1.30;99.90
37702;DHT22;23548;51.196;6.838;2023-03-01T02:18:58;-1.40;99.90
37702;DHT22;23548;51.196;6.838;2023-03-01T02:21:45;-1.40;99.90
37702;DHT22;23548;51.196;6.838;2023-03-01T02:26:50;-1.30;99.90
37702;DHT22;23548;51.196;6.838;2023-03-01T02:29:18;-1.20;99.90
37702;DHT22;23548;51.196;6.838;2023-03-01T02:31:44;-1.10;99.90
37702;DHT22;23548;51.196;6.838;2023-03-01T02:34:16;-1.00;99.90
37702;DHT22;23548;51.196;6.838;2023-03-01T02:37:01;-1.00;99.90
37702;DHT22;23548;51.196;6.838;2023-03-01T02:39:59;-1.00;99.90
37702;DHT22;23548;51.196;6.838;2023-03-01T02:42:33;-1.00;99.90
37702;DHT22;23548;51.196;6.838;2023-03-01T02:45:00;-1.00;99.90
37702;DHT22;23548;51.196;6.838;2023-03-01T02:47:26;-1.00;99.90
37702;DHT22;23548;51.196;6.838;2023-03-01T02:49:52;-1.00;99.90
37702;DHT22;23548;51.196;6.838;2023-03-01T02:52:34;-1.00;99.90
37702;DHT22;23548;51.196;6.838;2023-03-01T02:55:09;-1.10;99.90
37702;DHT22;23548;51.196;6.838;2023-03-01T02:57:38;-1.20;99.90
37702;DHT22;23548;51.196;6.838;2023-03-01T03:00:14;-1.30;99.90
37702;DHT22;23548;51.196;6.838;2023-03-01T03:02:48;-1.30;99.90
37702;DHT22;23548;51.196;6.838;2023-03-01T03:05:27;-1.30;99.90
37702;DHT22;23548;51.196;6.838;2023-03-01T03:07:53;-1.40;99.90
37702;DHT22;23548;51.196;6.838;2023-03-01T03:10:31;-1.40;99.90
37702;DHT22;23548;51.196;6.838;2023-03-01T03:13:05;-1.40;99.90
37702;DHT22;23548;51.196;6.838;2023-03-01T03:15:33;-1.30;99.90
37702;DHT22;23548;51.196;6.838;2023-03-01T03:18:03;-1.30;99.90
37702;DHT22;23548;51.196;6.838;2023-03-01T03:20:30;-1.20;99.90
37702;DHT22;23548;51.196;6.838;2023-03-01T03:22:58;-1.10;99.90
37702;DHT22;23548;51.196;6.838;2023-03-01T03:25:27;-1.00;99.90
37702;DHT22;23548;51.196;6.838;2023-03-01T03:27:53;-1.00;99.90
37702;DHT22;23548;51.196;6.838;2023-03-01T03:30:31;-0.90;99.90
37702;DHT22;23548;51.196;6.838;2023-03-01T03:32:58;-0.90;99.90
37702;DHT22;23548;51.196;6.838;2023-03-01T03:35:29;-1.00;99.90
37702;DHT22;23548;51.196;6.838;2023-03-01T03:38:05;-1.00;99.90
37702;DHT22;23548;51.196;6.838;2023-03-01T03:40:43;-1.00;99.90
37702;DHT22;23548;51.196;6.838;2023-03-01T03:43:11;-0.80;99.90
37702;DHT22;23548;51.196;6.838;2023-03-01T03:45:37;-0.80;99.90
37702;DHT22;23548;51.196;6.838;2023-03-01T03:48:05;-0.70;99.90
37702;DHT22;23548;51.196;6.838;2023-03-01T03:50:31;-0.70;99.90
37702;DHT22;23548;51.196;6.838;2023-03-01T03:52:57;-0.80;99.90
37702;DHT22;23548;51.196;6.838;2023-03-01T03:55:23;-0.80;99.90
37702;DHT22;23548;51.196;6.838;2023-03-01T03:57:53;-0.80;99.90
37702;DHT22;23548;51.196;6.838;2023-03-01T04:00:20;-0.90;99.90
37702;DHT22;23548;51.196;6.838;2023-03-01T04:02:47;-0.90;99.90
37702;DHT22;23548;51.196;6.838;2023-03-01T04:05:15;-0.80;99.90
37702;DHT22;23548;51.196;6.838;2023-03-01T04:07:42;-0.80;99.90
37702;DHT22;23548;51.196;6.838;2023-03-01T04:10:14;-0.90;99.90
37702;DHT22;23548;51.196;6.838;2023-03-01T04:12:39;-0.90;99.90
37702;DHT22;23548;51.196;6.838;2023-03-01T04:15:07;-0.90;99.90
37702;DHT22;23548;51.196;6.838;2023-03-01T04:17:44;-0.90;99.90
37702;DHT22;23548;51.196;6.838;2023-03-01T04:20:16;-1.00;99.90
37702;DHT22;23548;51.196;6.838;2023-03-01T04:23:12;-1.00;99.90
37702;DHT22;23548;51.196;6.838;2023-03-01T04:25:41;-1.10;99.90
37702;DHT22;23548;51.196;6.838;2023-03-01T04:28:09;-1.20;99.90
37702;DHT22;23548;51.196;6.838;2023-03-01T04:30:36;-1.30;99.90
37702;DHT22;23548;51.196;6.838;2023-03-01T04:33:05;-1.30;99.90
37702;DHT22;23548;51.196;6.838;2023-03-01T04:35:32;-1.30;99.90
37702;DHT22;23548;51.196;6.838;2023-03-01T04:37:58;-1.30;99.90
37702;DHT22;23548;51.196;6.838;2023-03-01T04:40:24;-1.30;99.90
37702;DHT22;23548;51.196;6.838;2023-03-01T04:42:50;-1.40;99.90
37702;DHT22;23548;51.196;6.838;2023-03-01T04:45:16;-1.40;99.90
37702;DHT22;23548;51.196;6.838;2023-03-01T04:47:43;-1.40;99.90
37702;DHT22;23548;51.196;6.838;2023-03-01T04:50:15;-1.30;99.90
37702;DHT22;23548;51.196;6.838;2023-03-01T04:52:41;-1.30;99.90
37702;DHT22;23548;51.196;6.838;2023-03-01T04:55:08;-1.20;99.90
37702;DHT22;23548;51.196;6.838;2023-03-01T04:57:34;-1.20;99.90
37702;DHT22;23548;51.196;6.838;2023-03-01T05:00:00;-1.20;99.90
37702;DHT22;23548;51.196;6.838;2023-03-01T05:02:26;-1.20;99.90
37702;DHT22;23548;51.196;6.838;2023-03-01T05:04:52;-1.20;99.90
37702;DHT22;23548;51.196;6.838;2023-03-01T05:07:17;-1.10;99.90
37702;DHT22;23548;51.196;6.838;2023-03-01T05:09:48;-1.10;99.90
37702;DHT22;23548;51.196;6.838;2023-03-01T05:12:14;-1.10;99.90
37702;DHT22;23548;51.196;6.838;2023-03-01T05:14:40;-1.20;99.90
37702;DHT22;23548;51.196;6.838;2023-03-01T05:17:07;-1.20;99.90
37702;DHT22;23548;51.196;6.838;2023-03-01T05:19:33;-1.10;99.90
37702;DHT22;23548;51.196;6.838;2023-03-01T05:21:59;-1.00;99.90
37702;DHT22;23548;51.196;6.838;2023-03-01T05:24:30;-0.90;99.90
37702;DHT22;23548;51.196;6.838;2023-03-01T05:26:57;-0.90;99.90
37702;DHT22;23548;51.196;6.838;2023-03-01T05:29:24;-0.90;99.90
37702;DHT22;23548;51.196;6.838;2023-03-01T05:32:00;-1.00;99.90
37702;DHT22;23548;51.196;6.838;2023-03-01T05:34:29;-1.10;99.90
37702;DHT22;23548;51.196;6.838;2023-03-01T05:36:56;-1.10;99.90
37702;DHT22;23548;51.196;6.838;2023-03-01T05:39:24;-1.10;99.90
37702;DHT22;23548;51.196;6.838;2023-03-01T05:41:58;-1.10;99.90
37702;DHT22;23548;51.196;6.838;2023-03-01T05:44:24;-1.10;99.90
37702;DHT22;23548;51.196;6.838;2023-03-01T05:46:51;-1.10;99.90
37702;DHT22;23548;51.196;6.838;2023-03-01T05:49:17;-1.10;99.90
37702;DHT22;23548;51.196;6.838;2023-03-01T05:51:48;-1.20;99.90
37702;DHT22;23548;51.196;6.838;2023-03-01T05:54:14;-1.20;99.90
37702;DHT22;23548;51.196;6.838;2023-03-01T05:56:40;-1.10;99.90
37702;DHT22;23548;51.196;6.838;2023-03-01T05:59:06;-1.10;99.90
37702;DHT22;23548;51.196;6.838;2023-03-01T06:01:33;-1.10;99.90
37702;DHT22;23548;51.196;6.838;2023-03-01T06:04:00;-1.00;99.90
37702;DHT22;23548;51.196;6.838;2023-03-01T06:06:26;-1.00;99.90
37702;DHT22;23548;51.196;6.838;2023-03-01T06:08:52;-0.90;99.90
37702;DHT22;23548;51.196;6.838;2023-03-01T06:11:19;-1.00;99.90
37702;DHT22;23548;51.196;6.838;2023-03-01T06:13:46;-1.10;99.90
37702;DHT22;23548;51.196;6.838;2023-03-01T06:16:13;-1.00;99.90
37702;DHT22;23548;51.196;6.838;2023-03-01T06:18:39;-1.10;99.90
37702;DHT22;23548;51.196;6.838;2023-03-01T06:21:07;-1.00;99.90
37702;DHT22;23548;51.196;6.838;2023-03-01T06:23:33;-0.90;99.90
37702;DHT22;23548;51.196;6.838;2023-03-01T06:26:00;-1.00;99.90
37702;DHT22;23548;51.196;6.838;2023-03-01T06:28:25;-1.00;99.90
37702;DHT22;23548;51.196;6.838;2023-03-01T06:30:52;-1.00;99.90
37702;DHT22;23548;51.196;6.838;2023-03-01T06:33:19;-1.10;99.90
37702;DHT22;23548;51.196;6.838;2023-03-01T06:35:50;-1.00;99.90
37702;DHT22;23548;51.196;6.838;2023-03-01T06:38:16;-0.70;99.90
37702;DHT22;23548;51.196;6.838;2023-03-01T06:40:44;-0.50;99.90
37702;DHT22;23548;51.196;6.838;2023-03-01T06:43:10;-0.50;99.90
37702;DHT22;23548;51.196;6.838;2023-03-01T06:45:37;-0.50;99.90
37702;DHT22;23548;51.196;6.838;2023-03-01T06:48:05;-0.50;99.90
37702;DHT22;23548;51.196;6.838;2023-03-01T06:50:32;-0.40;99.90
37702;DHT22;23548;51.196;6.838;2023-03-01T06:52:57;-0.30;99.90
37702;DHT22;23548;51.196;6.838;2023-03-01T06:55:24;-0.30;99.90
37702;DHT22;23548;51.196;6.838;2023-03-01T06:57:54;-0.30;99.90
37702;DHT22;23548;51.196;6.838;2023-03-01T07:00:22;-0.10;99.90
37702;DHT22;23548;51.196;6.838;2023-03-01T07:02:48;-0.10;99.90
37702;DHT22;23548;51.196;6.838;2023-03-01T07:05:13;-0.10;99.90
37702;DHT22;23548;51.196;6.838;2023-03-01T07:07:39;0.00;99.90
37702;DHT22;23548;51.196;6.838;2023-03-01T07:10:06;0.00;99.90
37702;DHT22;23548;51.196;6.838;2023-03-01T07:12:32;0.00;99.90
37702;DHT22;23548;51.196;6.838;2023-03-01T07:14:58;0.10;99.90
37702;DHT22;23548;51.196;6.838;2023-03-01T07:17:23;0.10;99.90
37702;DHT22;23548;51.196;6.838;2023-03-01T07:19:49;0.10;99.90
37702;DHT22;23548;51.196;6.838;2023-03-01T07:22:15;0.20;99.90
37702;DHT22;23548;51.196;6.838;2023-03-01T07:24:41;0.20;99.90
37702;DHT22;23548;51.196;6.838;2023-03-01T07:27:07;0.30;99.90
37702;DHT22;23548;51.196;6.838;2023-03-01T07:29:33;0.30;99.90
37702;DHT22;23548;51.196;6.838;2023-03-01T07:31:59;0.40;99.90
37702;DHT22;23548;51.196;6.838;2023-03-01T07:34:24;0.50;99.90
37702;DHT22;23548;51.196;6.838;2023-03-01T07:36:50;0.50;99.90
37702;DHT22;23548;51.196;6.838;2023-03-01T07:39:16;0.60;99.90
37702;DHT22;23548;51.196;6.838;2023-03-01T07:41:42;0.60;99.90
37702;DHT22;23548;51.196;6.838;2023-03-01T07:44:08;0.70;99.90
37702;DHT22;23548;51.196;6.838;2023-03-01T07:46:34;0.80;99.90
37702;DHT22;23548;51.196;6.838;2023-03-01T07:49:02;0.80;99.90
37702;DHT22;23548;51.196;6.838;2023-03-01T07:51:30;0.90;99.90
37702;DHT22;23548;51.196;6.838;2023-03-01T07:53:56;1.10;99.90
37702;DHT22;23548;51.196;6.838;2023-03-01T07:56:22;1.30;99.90
37702;DHT22;23548;51.196;6.838;2023-03-01T07:58:47;1.40;99.90
37702;DHT22;23548;51.196;6.838;2023-03-01T08:01:16;1.30;99.90
37702;DHT22;23548;51.196;6.838;2023-03-01T08:03:42;1.40;99.90
37702;DHT22;23548;51.196;6.838;2023-03-01T08:06:10;1.40;99.90
37702;DHT22;23548;51.196;6.838;2023-03-01T08:08:36;1.40;99.90
37702;DHT22;23548;51.196;6.838;2023-03-01T08:11:03;1.50;99.90
37702;DHT22;23548;51.196;6.838;2023-03-01T08:13:30;1.50;99.90
37702;DHT22;23548;51.196;6.838;2023-03-01T08:16:07;1.60;99.90
37702;DHT22;23548;51.196;6.838;2023-03-01T08:18:34;1.70;99.90
37702;DHT22;23548;51.196;6.838;2023-03-01T08:21:05;1.80;99.90
37702;DHT22;23548;51.196;6.838;2023-03-01T08:23:31;1.80;99.90
37702;DHT22;23548;51.196;6.838;2023-03-01T08:28:33;1.90;99.90
37702;DHT22;23548;51.196;6.838;2023-03-01T08:30:59;2.00;99.90
37702;DHT22;23548;51.196;6.838;2023-03-01T08:33:25;2.00;99.90
37702;DHT22;23548;51.196;6.838;2023-03-01T08:35:50;2.10;99.90
37702;DHT22;23548;51.196;6.838;2023-03-01T08:38:16;2.20;99.90
37702;DHT22;23548;51.196;6.838;2023-03-01T08:40:42;2.40;99.90
37702;DHT22;23548;51.196;6.838;2023-03-01T08:43:07;2.40;99.90
37702;DHT22;23548;51.196;6.838;2023-03-01T08:45:33;2.40;99.90
37702;DHT22;23548;51.196;6.838;2023-03-01T08:47:59;2.50;99.90
37702;DHT22;23548;51.196;6.838;2023-03-01T08:50:24;2.50;99.90
37702;DHT22;23548;51.196;6.838;2023-03-01T08:52:50;2.60;99.90
37702;DHT22;23548;51.196;6.838;2023-03-01T08:55:16;2.70;99.90
37702;DHT22;23548;51.196;6.838;2023-03-01T08:57:43;2.80;99.90
37702;DHT22;23548;51.196;6.838;2023-03-01T09:00:10;2.80;99.90
37702;DHT22;23548;51.196;6.838;2023-03-01T09:02:36;2.90;99.90
37702;DHT22;23548;51.196;6.838;2023-03-01T09:05:02;2.90;99.90
37702;DHT22;23548;51.196;6.838;2023-03-01T09:07:28;3.00;99.90
37702;DHT22;23548;51.196;6.838;2023-03-01T09:09:54;3.00;99.90
37702;DHT22;23548;51.196;6.838;2023-03-01T09:12:20;2.90;99.90
37702;DHT22;23548;51.196;6.838;2023-03-01T09:14:46;3.00;99.90
37702;DHT22;23548;51.196;6.838;2023-03-01T09:17:12;3.10;99.90
37702;DHT22;23548;51.196;6.838;2023-03-01T09:19:38;3.20;99.90
37702;DHT22;23548;51.196;6.838;2023-03-01T09:22:04;3.30;99.90
37702;DHT22;23548;51.196;6.838;2023-03-01T09:24:30;3.40;99.90
37702;DHT22;23548;51.196;6.838;2023-03-01T09:26:56;3.50;99.90
37702;DHT22;23548;51.196;6.838;2023-03-01T09:29:22;3.60;99.90
37702;DHT22;23548;51.196;6.838;2023-03-01T09:31:48;3.80;99.90
37702;DHT22;23548;51.196;6.838;2023-03-01T09:34:14;3.80;99.90
37702;DHT22;23548;51.196;6.838;2023-03-01T09:36:41;3.90;99.90
37702;DHT22;23548;51.196;6.838;2023-03-01T09:39:07;4.00;99.90
37702;DHT22;23548;51.196;6.838;2023-03-01T09:47:04;3.80;99.90
37702;DHT22;23548;51.196;6.838;2023-03-01T09:49:35;3.80;99.90
37702;DHT22;23548;51.196;6.838;2023-03-01T09:54:53;3.90;99.60
37702;DHT22;23548;51.196;6.838;2023-03-01T09:57:36;4.10;99.80
37702;DHT22;23548;51.196;6.838;2023-03-01T10:08:46;4.60;98.20
37702;DHT22;23548;51.196;6.838;2023-03-01T10:14:05;4.60;97.40
37702;DHT22;23548;51.196;6.838;2023-03-01T10:16:40;4.60;97.50
37702;DHT22;23548;51.196;6.838;2023-03-01T10:19:14;4.60;97.10
37702;DHT22;23548;51.196;6.838;2023-03-01T10:21:45;4.60;97.20
37702;DHT22;23548;51.196;6.838;2023-03-01T10:24:16;4.80;97.00
37702;DHT22;23548;51.196;6.838;2023-03-01T10:26:47;4.80;96.30
37702;DHT22;23548;51.196;6.838;2023-03-01T10:29:14;4.80;95.90
37702;DHT22;23548;51.196;6.838;2023-03-01T10:31:44;4.90;96.30
37702;DHT22;23548;51.196;6.838;2023-03-01T10:34:32;4.90;95.50
37702;DHT22;23548;51.196;6.838;2023-03-01T10:40:15;5.00;95.30
37702;DHT22;23548;51.196;6.838;2023-03-01T10:42:47;5.00;95.10
37702;DHT22;23548;51.196;6.838;2023-03-01T10:48:14;4.80;95.10
37702;DHT22;23548;51.196;6.838;2023-03-01T10:50:42;4.90;95.00
37702;DHT22;23548;51.196;6.838;2023-03-01T10:53:28;4.80;94.70
37702;DHT22;23548;51.196;6.838;2023-03-01T10:58:27;5.10;94.20
37702;DHT22;23548;51.196;6.838;2023-03-01T11:00:56;5.20;94.50
37702;DHT22;23548;51.196;6.838;2023-03-01T11:03:30;5.30;94.20
37702;DHT22;23548;51.196;6.838;2023-03-01T11:06:20;5.40;94.00
37702;DHT22;23548;51.196;6.838;2023-03-01T11:08:48;5.40;94.10
37702;DHT22;23548;51.196;6.838;2023-03-01T11:16:37;5.40;93.40
37702;DHT22;23548;51.196;6.838;2023-03-01T11:24:11;6.00;93.40
37702;DHT22;23548;51.196;6.838;2023-03-01T11:26:41;5.80;93.50
37702;DHT22;23548;51.196;6.838;2023-03-01T11:29:18;5.90;93.40
37702;DHT22;23548;51.196;6.838;2023-03-01T11:31:48;5.90;92.80
37702;DHT22;23548;51.196;6.838;2023-03-01T11:34:21;6.00;92.60
37702;DHT22;23548;51.196;6.838;2023-03-01T11:36:58;6.00;92.60
37702;DHT22;23548;51.196;6.838;2023-03-01T11:39:39;6.00;92.50
37702;DHT22;23548;51.196;6.838;2023-03-01T11:42:20;5.90;92.90
37702;DHT22;23548;51.196;6.838;2023-03-01T11:44:54;6.00;92.50
37702;DHT22;23548;51.196;6.838;2023-03-01T11:58:02;6.40;92.70
37702;DHT22;23548;51.196;6.838;2023-03-01T12:09:27;6.20;92.10
37702;DHT22;23548;51.196;6.838;2023-03-01T12:12:26;6.40;92.10
37702;DHT22;23548;51.196;6.838;2023-03-01T12:23:17;6.50;92.30
37702;DHT22;23548;51.196;6.838;2023-03-01T12:28:44;6.40;92.30
37702;DHT22;23548;51.196;6.838;2023-03-01T12:37:23;6.50;91.80
37702;DHT22;23548;51.196;6.838;2023-03-01T12:51:29;6.60;90.90
37702;DHT22;23548;51.196;6.838;2023-03-01T12:53:57;6.60;90.50
37702;DHT22;23548;51.196;6.838;2023-03-01T12:56:27;6.60;90.90
37702;DHT22;23548;51.196;6.838;2023-03-01T13:01:33;6.70;90.20
37702;DHT22;23548;51.196;6.838;2023-03-01T13:06:52;6.80;90.90
37702;DHT22;23548;51.196;6.838;2023-03-01T13:11:53;6.90;90.90
37702;DHT22;23548;51.196;6.838;2023-03-01T13:16:50;6.90;91.00
37702;DHT22;23548;51.196;6.838;2023-03-01T13:21:45;6.90;91.20
37702;DHT22;23548;51.196;6.838;2023-03-01T13:24:37;6.90;90.90
37702;DHT22;23548;51.196;6.838;2023-03-01T13:29:52;6.90;91.40
37702;DHT22;23548;51.196;6.838;2023-03-01T13:32:23;6.90;90.70
37702;DHT22;23548;51.196;6.838;2023-03-01T13:37:37;6.80;91.20
37702;DHT22;23548;51.196;6.838;2023-03-01T13:42:53;7.00;90.40
37702;DHT22;23548;51.196;6.838;2023-03-01T13:45:36;7.00;90.30
37702;DHT22;23548;51.196;6.838;2023-03-01T13:48:25;7.20;90.60
37702;DHT22;23548;51.196;6.838;2023-03-01T13:50:55;7.10;90.00
37702;DHT22;23548;51.196;6.838;2023-03-01T13:53:26;7.20;90.40
37702;DHT22;23548;51.196;6.838;2023-03-01T13:56:00;7.20;90.50
37702;DHT22;23548;51.196;6.838;2023-03-01T13:58:30;7.30;89.30
37702;DHT22;23548;51.196;6.838;2023-03-01T14:00:59;7.30;90.50
37702;DHT22;23548;51.196;6.838;2023-03-01T14:03:26;7.40;89.70
37702;DHT22;23548;51.196;6.838;2023-03-01T14:06:15;7.30;90.20
37702;DHT22;23548;51.196;6.838;2023-03-01T14:08:44;7.40;90.70
37702;DHT22;23548;51.196;6.838;2023-03-01T14:11:35;7.40;90.40
37702;DHT22;23548;51.196;6.838;2023-03-01T14:19:48;7.50;90.60
37702;DHT22;23548;51.196;6.838;2023-03-01T14:22:26;7.40;90.50
37702;DHT22;23548;51.196;6.838;2023-03-01T14:25:02;8.40;89.50
37702;DHT22;23548;51.196;6.838;2023-03-01T14:27:39;9.70;86.20
37702;DHT22;23548;51.196;6.838;2023-03-01T14:30:41;10.30;82.80
37702;DHT22;23548;51.196;6.838;2023-03-01T14:33:20;10.00;83.30
37702;DHT22;23548;51.196;6.838;2023-03-01T14:35:55;10.20;82.40
37702;DHT22;23548;51.196;6.838;2023-03-01T14:38:28;10.90;81.90
37702;DHT22;23548;51.196;6.838;2023-03-01T14:40:57;10.70;82.00
37702;DHT22;23548;51.196;6.838;2023-03-01T14:43:24;11.10;79.40
37702;DHT22;23548;51.196;6.838;2023-03-01T14:45:53;11.10;77.80
37702;DHT22;23548;51.196;6.838;2023-03-01T14:48:19;10.90;79.70
37702;DHT22;23548;51.196;6.838;2023-03-01T14:50:45;11.40;77.00
37702;DHT22;23548;51.196;6.838;2023-03-01T14:53:26;11.50;76.50
37702;DHT22;23548;51.196;6.838;2023-03-01T14:55:55;11.80;74.60
37702;DHT22;23548;51.196;6.838;2023-03-01T14:58:25;11.70;74.30
37702;DHT22;23548;51.196;6.838;2023-03-01T15:00:57;11.70;73.60
37702;DHT22;23548;51.196;6.838;2023-03-01T15:05:52;12.00;72.90
37702;DHT22;23548;51.196;6.838;2023-03-01T15:08:21;12.50;71.90
37702;DHT22;23548;51.196;6.838;2023-03-01T15:13:32;12.50;69.10
37702;DHT22;23548;51.196;6.838;2023-03-01T15:16:30;11.30;72.30
37702;DHT22;23548;51.196;6.838;2023-03-01T15:19:06;11.50;73.40
37702;DHT22;23548;51.196;6.838;2023-03-01T15:21:34;12.20;71.00
37702;DHT22;23548;51.196;6.838;2023-03-01T15:24:23;11.50;71.10
37702;DHT22;23548;51.196;6.838;2023-03-01T15:29:25;11.40;70.90
37702;DHT22;23548;51.196;6.838;2023-03-01T15:32:22;11.20;70.80
37702;DHT22;23548;51.196;6.838;2023-03-01T15:34:51;11.20;68.90
37702;DHT22;23548;51.196;6.838;2023-03-01T15:37:45;9.90;70.90
37702;DHT22;23548;51.196;6.838;2023-03-01T15:40:32;8.50;75.10
37702;DHT22;23548;51.196;6.838;2023-03-01T15:43:04;8.00;76.00
37702;DHT22;23548;51.196;6.838;2023-03-01T15:45:32;7.60;77.60
37702;DHT22;23548;51.196;6.838;2023-03-01T15:48:05;7.40;78.80
37702;DHT22;23548;51.196;6.838;2023-03-01T15:50:39;7.30;79.70
37702;DHT22;23548;51.196;6.838;2023-03-01T15:53:09;7.20;80.30
37702;DHT22;23548;51.196;6.838;2023-03-01T15:55:37;7.20;80.00
37702;DHT22;23548;51.196;6.838;2023-03-01T15:58:14;7.00;80.80
37702;DHT22;23548;51.196;6.838;2023-03-01T16:00:41;7.00;81.10
37702;DHT22;23548;51.196;6.838;2023-03-01T16:03:09;6.90;81.60
37702;DHT22;23548;51.196;6.838;2023-03-01T16:05:37;6.90;81.70
37702;DHT22;23548;51.196;6.838;2023-03-01T16:08:05;6.90;81.50
37702;DHT22;23548;51.196;6.838;2023-03-01T16:10:32;6.90;81.60
37702;DHT22;23548;51.196;6.838;2023-03-01T16:12:58;6.90;81.40
37702;DHT22;23548;51.196;6.838;2023-03-01T16:15:31;6.80;80.90
37702;DHT22;23548;51.196;6.838;2023-03-01T16:17:57;6.80;81.60
37702;DHT22;23548;51.196;6.838;2023-03-01T16:20:28;6.70;82.10
37702;DHT22;23548;51.196;6.838;2023-03-01T16:22:55;6.80;81.50
37702;DHT22;23548;51.196;6.838;2023-03-01T16:25:23;6.70;82.20
37702;DHT22;23548;51.196;6.838;2023-03-01T16:27:50;6.70;82.70
37702;DHT22;23548;51.196;6.838;2023-03-01T16:30:18;6.60;82.10
37702;DHT22;23548;51.196;6.838;2023-03-01T16:32:46;6.60;82.60
37702;DHT22;23548;51.196;6.838;2023-03-01T16:35:15;6.50;82.90
37702;DHT22;23548;51.196;6.838;2023-03-01T16:37:41;6.40;82.80
37702;DHT22;23548;51.196;6.838;2023-03-01T16:40:18;6.40;83.60
37702;DHT22;23548;51.196;6.838;2023-03-01T16:42:44;6.30;84.70
37702;DHT22;23548;51.196;6.838;2023-03-01T16:45:10;6.30;83.40
37702;DHT22;23548;51.196;6.838;2023-03-01T16:47:36;6.20;83.20
37702;DHT22;23548;51.196;6.838;2023-03-01T16:50:02;6.20;82.80
37702;DHT22;23548;51.196;6.838;2023-03-01T16:52:28;6.10;83.20
37702;DHT22;23548;51.196;6.838;2023-03-01T16:54:54;6.10;83.40
37702;DHT22;23548;51.196;6.838;2023-03-01T16:57:20;6.00;83.50
37702;DHT22;23548;51.196;6.838;2023-03-01T16:59:46;6.00;84.20
37702;DHT22;23548;51.196;6.838;2023-03-01T17:02:13;5.90;84.50
37702;DHT22;23548;51.196;6.838;2023-03-01T17:04:40;5.80;84.90
37702;DHT22;23548;51.196;6.838;2023-03-01T17:07:06;5.80;85.10
37702;DHT22;23548;51.196;6.838;2023-03-01T17:09:41;5.70;85.50
37702;DHT22;23548;51.196;6.838;2023-03-01T17:12:06;5.70;86.00
37702;DHT22;23548;51.196;6.838;2023-03-01T17:14:32;5.60;86.10
37702;DHT22;23548;51.196;6.838;2023-03-01T17:16:58;5.50;86.70
37702;DHT22;23548;51.196;6.838;2023-03-01T17:19:24;5.40;87.50
37702;DHT22;23548;51.196;6.838;2023-03-01T17:21:49;5.40;87.10
37702;DHT22;23548;51.196;6.838;2023-03-01T17:24:15;5.40;87.40
37702;DHT22;23548;51.196;6.838;2023-03-01T17:26:41;5.30;88.10
37702;DHT22;23548;51.196;6.838;2023-03-01T17:29:07;5.20;88.10
37702;DHT22;23548;51.196;6.838;2023-03-01T17:31:33;5.10;88.90
37702;DHT22;23548;51.196;6.838;2023-03-01T17:33:59;5.00;89.30
37702;DHT22;23548;51.196;6.838;2023-03-01T17:36:25;5.00;89.60
37702;DHT22;23548;51.196;6.838;2023-03-01T17:38:51;5.00;89.50
37702;DHT22;23548;51.196;6.838;2023-03-01T17:41:17;4.90;90.00
37702;DHT22;23548;51.196;6.838;2023-03-01T17:43:44;4.90;90.00
37702;DHT22;23548;51.196;6.838;2023-03-01T17:46:10;4.90;90.00
37702;DHT22;23548;51.196;6.838;2023-03-01T17:48:37;4.90;90.20
37702;DHT22;23548;51.196;6.838;2023-03-01T17:51:07;4.90;90.40
37702;DHT22;23548;51.196;6.838;2023-03-01T17:53:34;4.90;90.30
37702;DHT22;23548;51.196;6.838;2023-03-01T17:56:02;4.90;90.30
37702;DHT22;23548;51.196;6.838;2023-03-01T17:58:28;5.00;90.10
37702;DHT22;23548;51.196;6.838;2023-03-01T18:00:54;4.90;90.40
37702;DHT22;23548;51.196;6.838;2023-03-01T18:03:20;4.80;90.50
37702;DHT22;23548;51.196;6.838;2023-03-01T18:05:46;4.80;90.60